Time;durP1;ratioP1;P1;durP2;ratioP2;P2;SDS_P1;SDS_P2;PMS_P1;PMS_P2;Temp;Humidity;BMP_temperature;BMP_pressure;BME280_temperature;BME280_humidity;BME280_pressure;Samples;Min_cycle;Max_cycle;Signal;HPM_P1;HPM_P2
2024/04/10 00:02:16;;;;;;;15.25;3.75;;;;;;;7.96;100.00;102056.72;5379552;26;20514;-73
2024/04/10 00:04:41;;;;;;;19.20;3.75;;;;;;;7.92;100.00;102052.53;5378823;26;19996;-74
2024/04/10 00:07:06;;;;;;;21.02;4.38;;;;;;;7.94;100.00;102058.59;5379537;26;20437;-73
2024/04/10 00:09:32;;;;;;;18.92;3.35;;;;;;;7.97;100.00;102068.16;5379633;26;19996;-73
2024/04/10 00:11:57;;;;;;;12.02;3.25;;;;;;;7.97;100.00;102065.50;5379118;26;19996;-74
2024/04/10 00:14:23;;;;;;;13.77;3.33;;;;;;;7.98;100.00;102057.47;5379696;26;20008;-73
2024/04/10 00:16:49;;;;;;;18.75;3.38;;;;;;;7.99;100.00;102069.78;5377177;26;20012;-72
2024/04/10 00:19:15;;;;;;;18.25;3.60;;;;;;;8.03;100.00;102073.09;5379436;26;20349;-74
2024/04/10 00:21:43;;;;;;;21.80;3.65;;;;;;;8.03;100.00;102075.75;5378948;26;20011;-82
2024/04/10 00:24:09;;;;;;;13.20;3.30;;;;;;;8.04;100.00;102077.44;5380015;26;20071;-74
2024/04/10 00:26:34;;;;;;;17.50;3.42;;;;;;;8.10;100.00;102071.78;5379763;26;20004;-72
2024/04/10 00:29:02;;;;;;;14.85;3.08;;;;;;;8.13;100.00;102082.19;5377381;26;20040;-73
2024/04/10 00:31:27;;;;;;;13.75;3.53;;;;;;;8.18;100.00;102079.25;5379520;26;20007;-73
2024/04/10 00:33:53;;;;;;;15.70;2.95;;;;;;;8.18;100.00;102088.09;5379122;26;20305;-73
2024/04/10 00:36:19;;;;;;;15.13;3.63;;;;;;;8.16;100.00;102089.97;5379127;26;19996;-73
2024/04/10 00:38:44;;;;;;;16.10;3.47;;;;;;;8.18;100.00;102101.34;5378729;26;20001;-77
2024/04/10 00:41:10;;;;;;;12.45;3.03;;;;;;;8.20;100.00;102094.13;5377601;26;20000;-74
2024/04/10 00:43:35;;;;;;;9.85;3.03;;;;;;;8.24;100.00;102108.91;5377413;26;20008;-74
2024/04/10 00:46:14;;;;;;;10.77;2.85;;;;;;;8.29;100.00;102119.25;5380679;26;19996;-75
2024/04/10 00:48:40;;;;;;;12.95;3.17;;;;;;;8.33;100.00;102127.84;5382809;26;20069;-75
2024/04/10 00:51:11;;;;;;;15.35;3.03;;;;;;;8.33;100.00;102120.78;5381730;26;19996;-74
2024/04/10 00:53:37;;;;;;;14.20;3.45;;;;;;;8.33;100.00;102128.72;5382453;26;20007;-73
2024/04/10 00:56:03;;;;;;;14.25;2.78;;;;;;;8.33;100.00;102130.50;5382048;26;19996;-73
2024/04/10 00:58:31;;;;;;;15.43;3.22;;;;;;;8.32;100.00;102139.44;5382378;26;20464;-74
2024/04/10 01:00:57;;;;;;;19.42;3.80;;;;;;;8.32;100.00;102150.88;5380386;26;20008;-74
2024/04/10 01:03:24;;;;;;;16.40;3.00;;;;;;;8.32;100.00;102148.22;5380764;26;20004;-74
2024/04/10 01:06:03;;;;;;;14.32;3.25;;;;;;;8.29;100.00;102145.75;5382009;26;20003;-75
2024/04/10 01:08:30;;;;;;;16.38;3.30;;;;;;;8.26;100.00;102159.22;5382637;26;19996;-74
2024/04/10 01:10:58;;;;;;;12.70;2.95;;;;;;;8.27;100.00;102159.13;5379912;26;20324;-74
2024/04/10 01:13:27;;;;;;;10.40;2.72;;;;;;;8.27;100.00;102163.53;5382135;26;20004;-74
2024/04/10 01:15:53;;;;;;;10.20;2.55;;;;;;;8.27;100.00;102168.84;5380257;26;20007;-74
2024/04/10 01:18:19;;;;;;;12.48;2.85;;;;;;;8.27;100.00;102168.84;5381898;26;20032;-78
2024/04/10 01:20:46;;;;;;;8.80;2.65;;;;;;;8.28;100.00;102170.56;5377502;26;20093;-78
2024/04/10 01:23:11;;;;;;;12.40;2.95;;;;;;;8.27;100.00;102168.84;5379226;26;19996;-78
2024/04/10 01:25:36;;;;;;;12.00;2.63;;;;;;;8.25;100.00;102179.53;5377516;26;20003;-78
2024/04/10 01:28:02;;;;;;;14.95;3.65;;;;;;;8.24;100.00;102187.59;5377822;26;20008;-79
2024/04/10 01:30:28;;;;;;;13.25;3.15;;;;;;;8.23;100.00;102192.06;5379505;26;20007;-79
2024/04/10 01:32:53;;;;;;;17.40;3.30;;;;;;;8.22;100.00;102189.50;5379227;26;20000;-79
2024/04/10 01:35:18;;;;;;;16.63;2.50;;;;;;;8.23;100.00;102204.47;5348189;26;20011;-78
2024/04/10 01:37:45;;;;;;;13.48;3.05;;;;;;;8.20;100.00;102197.53;5379769;26;19996;-78
2024/04/10 01:40:13;;;;;;;14.25;3.03;;;;;;;8.20;100.00;102205.50;5319278;26;20000;-78
2024/04/10 01:42:45;;;;;;;13.73;2.90;;;;;;;8.17;100.00;102205.69;5379217;26;20452;-79
2024/04/10 01:45:11;;;;;;;12.48;2.58;;;;;;;8.14;100.00;102205.84;5377272;26;20029;-79
2024/04/10 01:47:37;;;;;;;24.00;2.92;;;;;;;8.12;100.00;102219.22;5379684;26;19993;-79
2024/04/10 01:50:02;;;;;;;19.90;2.45;;;;;;;8.06;100.00;102218.69;5377038;26;20066;-80
2024/04/10 01:52:28;;;;;;;19.63;2.78;;;;;;;7.98;100.00;102227.09;5377749;26;20004;-79
2024/04/10 01:54:53;;;;;;;11.45;2.55;;;;;;;7.92;100.00;102224.81;5379122;26;20000;-77
2024/04/10 01:57:19;;;;;;;14.23;2.60;;;;;;;7.90;100.00;102227.53;5376499;26;20102;-79
2024/04/10 01:59:44;;;;;;;12.38;2.50;;;;;;;7.90;100.00;102232.84;5379238;26;20008;-78
2024/04/10 02:02:10;;;;;;;15.35;2.58;;;;;;;7.88;100.00;102242.69;5378770;26;20103;-78
2024/04/10 02:04:35;;;;;;;11.80;2.72;;;;;;;7.87;100.00;102250.72;5379082;26;20017;-79
2024/04/10 02:07:01;;;;;;;16.60;3.20;;;;;;;7.89;100.00;102252.31;5376911;26;19996;-79
2024/04/10 02:09:28;;;;;;;14.85;2.80;;;;;;;7.92;100.00;102256.59;5379047;26;19996;-79
2024/04/10 02:11:53;;;;;;;11.88;3.10;;;;;;;7.94;100.00;102262.66;5378986;26;20003;-79
2024/04/10 02:14:19;;;;;;;14.02;2.75;;;;;;;7.94;100.00;102257.34;5379128;26;19992;-79
2024/04/10 02:16:44;;;;;;;10.63;2.58;;;;;;;7.98;100.00;102268.66;5376757;26;19996;-78
2024/04/10 02:19:09;;;;;;;11.77;2.50;;;;;;;7.98;100.00;102277.47;5378911;26;20008;-79
2024/04/10 02:21:35;;;;;;;18.42;3.25;;;;;;;8.00;100.00;102277.38;5377947;26;20014;-78
2024/04/10 02:24:00;;;;;;;18.30;2.63;;;;;;;7.97;100.00;102283.69;5378641;26;20012;-79
2024/04/10 02:26:26;;;;;;;15.48;2.40;;;;;;;7.99;100.00;102278.34;5376727;26;20452;-78
2024/04/10 02:28:52;;;;;;;17.10;2.78;;;;;;;7.98;100.00;102282.75;5378241;26;20054;-78
2024/04/10 02:31:17;;;;;;;7.82;2.85;;;;;;;7.98;100.00;102282.75;5377959;26;20389;-79
2024/04/10 02:33:43;;;;;;;14.40;3.13;;;;;;;7.99;100.00;102292.44;5376551;26;19996;-78
2024/04/10 02:36:08;;;;;;;16.80;2.80;;;;;;;8.00;100.00;102293.28;5376590;26;19997;-77
2024/04/10 02:38:35;;;;;;;12.77;2.63;;;;;;;8.00;100.00;102302.09;5378702;26;20000;-79
2024/04/10 02:41:01;;;;;;;13.40;3.05;;;;;;;7.99;100.00;102305.69;5376443;26;20115;-85
2024/04/10 02:43:26;;;;;;;12.48;3.78;;;;;;;8.01;100.00;102309.09;5378750;26;20417;-78
2024/04/10 02:45:56;;;;;;;14.02;2.60;;;;;;;8.01;100.00;102311.75;5376586;26;19996;-78
2024/04/10 02:48:22;;;;;;;7.75;2.33;;;;;;;8.02;100.00;102316.09;5378285;26;20389;-79
2024/04/10 02:50:47;;;;;;;21.35;3.45;;;;;;;8.02;100.00;102329.34;5378288;26;20115;-79
2024/04/10 02:53:13;;;;;;;17.48;3.30;;;;;;;8.00;100.00;102320.66;5378007;26;20003;-79
2024/04/10 02:55:41;;;;;;;13.93;2.80;;;;;;;7.98;100.00;102333.13;5376316;26;20388;-78
2024/04/10 02:58:07;;;;;;;13.45;2.40;;;;;;;7.97;100.00;102347.31;5378095;26;20010;-79
2024/04/10 03:00:33;;;;;;;10.18;2.78;;;;;;;8.00;100.00;102333.91;5377975;26;20000;-78
2024/04/10 03:02:58;;;;;;;18.10;2.50;;;;;;;7.99;100.00;102334.84;5376161;26;20004;-78
2024/04/10 03:05:23;;;;;;;12.45;2.97;;;;;;;7.98;100.00;102342.88;5376227;26;20011;-78
2024/04/10 03:07:49;;;;;;;13.45;3.03;;;;;;;7.95;100.00;102344.75;5376863;26;19996;-78
2024/04/10 03:10:16;;;;;;;17.05;2.78;;;;;;;7.95;100.00;102343.88;5378628;26;20293;-78
2024/04/10 03:12:42;;;;;;;16.92;2.50;;;;;;;7.94;100.00;102344.81;5378606;26;20000;-77
2024/04/10 03:15:09;;;;;;;11.70;2.40;;;;;;;7.95;100.00;102355.34;5378188;26;20073;-78
2024/04/10 03:17:35;;;;;;;13.52;2.38;;;;;;;7.95;100.00;102358.00;5376363;26;20066;-78
2024/04/10 03:20:00;;;;;;;17.40;2.78;;;;;;;7.91;100.00;102361.78;5378325;26;20020;-78
2024/04/10 03:22:25;;;;;;;23.52;2.70;;;;;;;7.87;100.00;102365.53;5377544;26;20054;-77
2024/04/10 03:24:51;;;;;;;17.40;2.53;;;;;;;7.85;100.00;102366.53;5376210;26;20007;-78
2024/04/10 03:27:16;;;;;;;17.85;2.53;;;;;;;7.82;100.00;102369.34;5375789;26;20420;-78
2024/04/10 03:29:42;;;;;;;16.33;2.40;;;;;;;7.79;100.00;102373.03;5378074;26;20000;-77
2024/04/10 03:32:07;;;;;;;16.58;2.50;;;;;;;7.76;100.00;102370.53;5377591;26;20118;-78
2024/04/10 03:34:33;;;;;;;9.77;2.30;;;;;;;7.75;100.00;102374.16;5377410;26;20077;-77
2024/04/10 03:36:58;;;;;;;13.13;2.55;;;;;;;7.74;100.00;102380.38;5377828;26;20011;-79
2024/04/10 03:39:23;;;;;;;16.40;2.55;;;;;;;7.72;100.00;102377.81;5377146;26;20073;-78
2024/04/10 03:41:49;;;;;;;11.68;2.28;;;;;;;7.71;100.00;102383.19;5377324;26;19996;-77
2024/04/10 03:44:15;;;;;;;11.23;2.53;;;;;;;7.64;100.00;102385.31;5346135;26;20032;-77
2024/04/10 03:46:40;;;;;;;12.52;2.58;;;;;;;7.54;100.00;102387.59;5377644;26;19996;-78
2024/04/10 03:49:05;;;;;;;16.55;2.67;;;;;;;7.39;100.00;102389.28;5375424;26;20413;-79
2024/04/10 03:51:31;;;;;;;16.05;3.25;;;;;;;7.33;100.00;102394.00;5377041;26;20490;-78
2024/04/10 03:53:56;;;;;;;18.88;2.63;;;;;;;7.28;100.00;102404.84;5375213;26;20401;-78
2024/04/10 03:56:21;;;;;;;12.45;2.50;;;;;;;7.20;100.00;102401.75;5375014;26;20412;-78
2024/04/10 03:58:50;;;;;;;10.15;2.20;;;;;;;7.14;100.00;102412.66;5374910;26;20011;-78
2024/04/10 04:01:15;;;;;;;18.15;2.88;;;;;;;7.06;100.00;102416.53;5375302;26;20013;-78
2024/04/10 04:03:40;;;;;;;14.00;2.47;;;;;;;7.08;100.00;102419.13;5377085;26;20004;-78
2024/04/10 04:06:06;;;;;;;25.83;2.90;;;;;;;7.10;100.00;102421.69;5345910;26;19992;-78
2024/04/10 04:08:31;;;;;;;15.00;3.17;;;;;;;7.11;100.00;102426.06;5377193;26;20297;-78
2024/04/10 04:10:57;;;;;;;10.18;2.72;;;;;;;7.10;100.00;102433.13;5376816;26;20054;-77
2024/04/10 04:13:23;;;;;;;15.07;3.00;;;;;;;7.14;100.00;102432.03;5376691;26;20015;-77
2024/04/10 04:15:49;;;;;;;14.50;3.42;;;;;;;7.17;100.00;102444.28;5376603;26;20011;-77
2024/04/10 04:18:14;;;;;;;11.75;2.28;;;;;;;7.15;100.00;102439.06;5377037;26;20003;-80
2024/04/10 04:20:40;;;;;;;16.63;3.47;;;;;;;7.13;100.00;102446.19;5377813;26;19996;-78
2024/04/10 04:23:05;;;;;;;13.70;2.78;;;;;;;7.13;100.00;102455.94;5348769;26;20416;-78
2024/04/10 04:25:33;;;;;;;16.13;2.85;;;;;;;7.07;100.00;102449.16;5380262;26;20011;-78
2024/04/10 04:27:59;;;;;;;17.17;2.92;;;;;;;7.00;100.00;102464.50;5379665;26;20026;-77
2024/04/10 04:30:24;;;;;;;12.65;2.40;;;;;;;6.94;100.00;102470.09;5379915;26;20031;-77
2024/04/10 04:32:50;;;;;;;28.70;3.03;;;;;;;6.89;100.00;102472.09;5379774;26;20020;-78
2024/04/10 04:35:15;;;;;;;15.85;2.20;;;;;;;6.81;100.00;102471.63;5377695;26;20000;-78
2024/04/10 04:37:45;;;;;;;11.77;1.98;;;;;;;6.73;100.00;102479.06;5380018;26;20369;-76
2024/04/10 04:40:10;;;;;;;16.92;2.90;;;;;;;6.73;100.00;102485.19;5380295;26;20015;-79
2024/04/10 04:42:37;;;;;;;19.45;3.28;;;;;;;6.68;100.00;102496.00;5378086;26;20004;-78
2024/04/10 04:45:03;;;;;;;13.55;2.40;;;;;;;6.66;100.00;102502.31;5379866;26;20001;-79
2024/04/10 04:47:28;;;;;;;14.20;3.20;;;;;;;6.65;100.00;102506.75;5379907;26;20103;-78
2024/04/10 04:49:54;;;;;;;12.77;2.38;;;;;;;6.66;100.00;102513.75;5377397;26;20107;-78
2024/04/10 04:52:19;;;;;;;14.38;3.35;;;;;;;6.69;100.00;102515.41;5379470;26;20328;-84
2024/04/10 04:54:44;;;;;;;17.27;2.53;;;;;;;6.71;100.00;102522.31;5379681;26;20007;-79
2024/04/10 04:57:12;;;;;;;16.08;3.30;;;;;;;6.72;100.00;102528.47;5379962;26;20282;-79
2024/04/10 04:59:38;;;;;;;15.88;2.13;;;;;;;6.71;100.00;102526.75;5377509;26;20004;-79
2024/04/10 05:02:03;;;;;;;20.42;2.78;;;;;;;6.67;100.00;102536.63;5379296;26;20035;-78
2024/04/10 05:07:12;;;;;;;14.15;2.10;;;;;;;6.65;100.00;102543.75;5380268;26;20011;-75
2024/04/10 05:09:38;;;;;;;13.65;2.25;;;;;;;6.67;100.00;102543.69;5378980;26;20004;-77
2024/04/10 05:12:03;;;;;;;18.67;2.80;;;;;;;6.63;100.00;102553.56;5379458;26;20006;-79
2024/04/10 05:14:29;;;;;;;17.00;2.53;;;;;;;6.57;100.00;102560.91;5379326;26;19996;-79
2024/04/10 05:16:54;;;;;;;9.10;1.90;;;;;;;6.53;100.00;102562.84;5377517;26;20007;-79
2024/04/10 05:19:19;;;;;;;15.88;2.45;;;;;;;6.49;100.00;102571.84;5377530;26;20396;-79
2024/04/10 05:21:44;;;;;;;17.88;3.35;;;;;;;6.50;100.00;102577.06;5379348;26;20003;-78
2024/04/10 05:24:10;;;;;;;23.02;2.58;;;;;;;6.52;100.00;102582.28;5349222;26;20409;-79
2024/04/10 05:26:36;;;;;;;12.68;2.33;;;;;;;6.48;100.00;102581.59;5377497;26;20386;-78
2024/04/10 05:29:02;;;;;;;15.68;1.77;;;;;;;6.42;100.00;102594.22;5378948;26;20415;-78
2024/04/10 05:31:27;;;;;;;19.75;2.58;;;;;;;6.36;100.00;102587.44;5376367;26;19996;-78
2024/04/10 05:33:53;;;;;;;14.70;2.63;;;;;;;6.35;100.00;102594.50;5377444;26;20000;-78
2024/04/10 05:36:18;;;;;;;19.63;2.95;;;;;;;6.38;100.00;102604.09;5377426;26;20000;-78
2024/04/10 05:38:45;;;;;;;12.35;1.90;;;;;;;6.38;100.00;102614.66;5377311;26;20046;-78
2024/04/10 05:41:10;;;;;;;14.93;2.35;;;;;;;6.39;100.00;102610.22;5320265;26;19997;-79
2024/04/10 05:43:36;;;;;;;11.48;2.30;;;;;;;6.39;100.00;102610.22;5378911;26;20072;-80
2024/04/10 05:46:01;;;;;;;7.85;1.85;;;;;;;6.42;100.00;102618.00;5378932;26;20119;-79
2024/04/10 05:48:27;;;;;;;17.85;2.63;;;;;;;6.41;100.00;102618.97;5377494;26;20000;-80
2024/04/10 05:50:58;;;;;;;12.25;2.30;;;;;;;6.44;100.00;102639.97;5380016;26;19996;-79
2024/04/10 05:53:24;;;;;;;14.43;2.78;;;;;;;6.46;100.00;102638.09;5380163;26;20000;-81
2024/04/10 05:55:50;;;;;;;13.55;2.05;;;;;;;6.52;100.00;102645.75;5348075;26;20412;-79
2024/04/10 05:58:15;;;;;;;12.60;2.70;;;;;;;6.62;100.00;102647.06;5378908;26;20004;-79
2024/04/10 06:00:41;;;;;;;7.35;1.63;;;;;;;6.71;100.00;102644.00;5378576;26;20340;-79
2024/04/10 06:03:06;;;;;;;12.82;2.50;;;;;;;6.82;100.00;102651.47;5378991;26;20273;-79
2024/04/10 06:05:32;;;;;;;12.43;2.03;;;;;;;6.94;100.00;102655.34;5376751;26;20032;-86
2024/04/10 06:08:00;;;;;;;15.90;2.47;;;;;;;6.98;100.00;102653.41;5378921;26;20003;-80
2024/04/10 06:10:25;;;;;;;13.48;2.25;;;;;;;7.03;100.00;102657.56;5378981;26;20023;-81
2024/04/10 06:12:51;;;;;;;7.80;1.98;;;;;;;7.10;100.00;102657.28;5376626;26;20291;-79
2024/04/10 06:15:17;;;;;;;8.75;1.90;;;;;;;7.17;100.00;102656.06;5376795;26;19992;-80
2024/04/10 06:17:42;;;;;;;20.45;4.60;;;;;;;7.26;100.00;102657.41;5376609;26;19992;-79
2024/04/10 06:20:11;;;;;;;15.48;2.22;;;;;;;7.32;100.00;102665.06;5376798;26;20490;-80
2024/04/10 06:22:37;;;;;;;8.25;1.70;;;;;;;7.45;100.00;102668.84;5376338;26;19996;-80
2024/04/10 06:25:02;;;;;;;15.75;2.25;;;;;;;7.59;100.00;102670.81;5347689;26;20007;-79
2024/04/10 06:27:28;;;;;;;15.85;2.58;;;;;;;7.71;100.00;102682.59;5347403;26;20000;-79
2024/04/10 06:29:53;;;;;;;10.70;2.05;;;;;;;7.85;100.00;102679.25;5346929;26;20016;-79
2024/04/10 06:32:18;;;;;;;15.73;2.10;;;;;;;8.01;100.00;102682.00;5346658;26;20019;-79
2024/04/10 06:34:44;;;;;;;15.38;2.67;;;;;;;8.17;100.00;102688.25;5375889;26;20016;-79
2024/04/10 06:37:12;;;;;;;11.45;1.70;;;;;;;8.30;100.00;102685.84;5377849;26;19996;-80
2024/04/10 06:39:37;;;;;;;19.90;2.55;;;;;;;8.50;100.00;102687.47;5377906;26;20006;-78
2024/04/10 06:42:03;;;;;;;14.32;2.30;;;;;;;8.74;100.00;102685.31;5375132;26;20000;-81
2024/04/10 06:44:28;;;;;;;8.43;1.58;;;;;;;8.88;100.00;102697.00;5376321;26;20392;-81
2024/04/10 06:46:53;;;;;;;12.27;1.83;;;;;;;9.02;100.00;102702.41;5375226;26;20000;-84
2024/04/10 06:49:19;;;;;;;15.45;2.38;;;;;;;9.12;100.00;102702.75;5376029;26;20004;-82
2024/04/10 06:51:45;;;;;;;10.00;2.00;;;;;;;9.07;100.00;102704.81;5377461;26;20004;-82
2024/04/10 06:54:11;;;;;;;13.43;2.10;;;;;;;8.95;100.00;102711.66;5377429;26;19996;-82
2024/04/10 06:56:37;;;;;;;13.02;3.00;;;;;;;8.85;100.00;102719.25;5377304;26;20154;-81
2024/04/10 06:59:02;;;;;;;12.00;1.95;;;;;;;8.95;100.00;102722.28;5317969;26;20296;-79
2024/04/10 07:01:28;;;;;;;10.85;1.98;;;;;;;9.09;100.00;102737.44;5346392;26;19996;-78
2024/04/10 07:03:53;;;;;;;11.10;1.73;;;;;;;9.25;100.00;102740.13;5375778;26;20000;-80
2024/04/10 07:06:19;;;;;;;11.52;1.88;;;;;;;9.33;100.00;102740.56;5346712;26;20126;-80
2024/04/10 07:08:47;;;;;;;12.50;2.08;;;;;;;9.51;100.00;102739.56;5375744;26;20073;-83
2024/04/10 07:11:15;;;;;;;10.05;1.73;;;;;;;9.76;100.00;102740.81;5375580;26;20393;-81
2024/04/10 07:13:53;;;;;;;12.27;1.70;;;;;;;9.92;100.00;102746.13;5375765;26;20000;-84
2024/04/10 07:16:30;;;;;;;17.63;2.78;;;;;;;9.93;100.00;102747.84;5375602;26;19996;-82
2024/04/10 07:18:56;;;;;;;15.63;1.65;;;;;;;9.85;100.00;102750.06;5348630;26;20076;-81
2024/04/10 07:21:24;;;;;;;8.68;1.85;;;;;;;9.85;100.00;102747.41;5377443;26;20082;-82
2024/04/10 07:23:49;;;;;;;11.88;1.98;;;;;;;9.87;100.00;102757.03;5375124;26;20008;-80
2024/04/10 07:26:20;;;;;;;11.13;1.77;;;;;;;9.98;100.00;102771.50;5377913;26;20393;-82
2024/04/10 07:28:54;;;;;;;10.63;2.23;;;;;;;10.04;100.00;102768.50;5374962;26;20277;-79
2024/04/10 07:31:36;;;;;;;11.82;1.90;;;;;;;10.01;100.00;102772.19;5374931;26;20032;-82
2024/04/10 07:34:04;;;;;;;18.45;2.22;;;;;;;10.00;100.00;102773.16;5374707;26;20432;-80
2024/04/10 07:36:31;;;;;;;11.35;2.00;;;;;;;9.95;100.00;102775.19;5377315;26;20046;-77
2024/04/10 07:38:58;;;;;;;9.55;2.03;;;;;;;9.92;100.00;102774.53;5374752;26;20004;-80
2024/04/10 07:41:24;;;;;;;11.07;2.22;;;;;;;9.94;100.00;102786.81;5375069;26;19989;-82
2024/04/10 07:43:50;;;;;;;16.52;2.00;;;;;;;9.83;100.00;102779.41;5374764;26;20030;-83
2024/04/10 07:46:17;;;;;;;13.70;1.88;;;;;;;9.77;100.00;102781.56;5377443;26;20060;-85
2024/04/10 07:48:50;;;;;;;9.70;1.85;;;;;;;9.78;100.00;102789.47;5375285;26;20119;-81
2024/04/10 07:51:16;;;;;;;12.98;2.38;;;;;;;9.89;100.00;102786.19;5377306;26;20412;-82
2024/04/10 07:53:45;;;;;;;7.63;2.22;;;;;;;9.94;100.00;102785.91;5376837;26;20001;-84
2024/04/10 07:56:16;;;;;;;10.68;1.70;;;;;;;9.91;100.00;102791.41;5378791;26;19996;-87
2024/04/10 07:58:42;;;;;;;;;;;;;;;9.81;100.00;102807.91;5380256;26;19992;-80
2024/04/10 08:01:08;;;;;;;13.23;2.50;;;;;;;9.97;100.00;102804.34;5379721;26;19949;-82
2024/04/10 08:03:34;;;;;;;12.15;1.60;;;;;;;10.58;100.00;102806.16;5380801;26;19999;-85
2024/04/10 08:06:05;;;;;;;9.60;1.73;;;;;;;10.76;100.00;102809.53;5380954;26;20177;-82
2024/04/10 08:08:30;;;;;;;10.13;1.77;;;;;;;10.75;100.00;102812.28;5378563;26;20078;-83
2024/04/10 08:11:00;;;;;;;8.40;2.10;;;;;;;10.58;100.00;102814.16;5378638;26;20227;-80
2024/04/10 08:13:26;;;;;;;11.27;2.05;;;;;;;10.76;100.00;102827.28;5380499;26;20074;-81
2024/04/10 08:16:04;;;;;;;9.18;1.92;;;;;;;11.08;100.00;102817.38;5378914;26;20004;-79
2024/04/10 08:18:31;;;;;;;9.13;1.85;;;;;;;11.40;100.00;102829.66;5381055;26;20135;-78
2024/04/10 08:21:00;;;;;;;15.38;2.28;;;;;;;11.65;100.00;102828.97;5378350;26;20142;-79
2024/04/10 08:23:30;;;;;;;11.05;2.33;;;;;;;11.21;100.00;102827.25;5380248;26;19996;-79
2024/04/10 08:25:57;;;;;;;8.65;2.40;;;;;;;11.04;100.00;102837.16;5380304;26;20000;-79
2024/04/10 08:28:24;;;;;;;13.57;1.88;;;;;;;11.25;100.00;102836.78;5380268;26;20015;-80
2024/04/10 08:30:50;;;;;;;15.90;1.52;;;;;;;11.62;100.00;102838.00;5349724;26;19996;-79
2024/04/10 08:33:15;;;;;;;14.07;1.70;;;;;;;12.02;100.00;102831.09;5380411;26;20384;-81
2024/04/10 08:35:42;;;;;;;9.18;1.40;;;;;;;12.41;100.00;102837.44;5377898;26;20073;-79
2024/04/10 08:38:07;;;;;;;11.40;1.63;;;;;;;12.73;100.00;102834.41;5380361;26;20008;-81
2024/04/10 08:40:35;;;;;;;8.50;2.25;;;;;;;12.51;100.00;102846.56;5380186;26;19996;-82
2024/04/10 08:43:02;;;;;;;7.90;1.63;;;;;;;12.69;100.00;102847.13;5378479;26;20135;-80
2024/04/10 08:45:30;;;;;;;10.27;1.75;;;;;;;12.87;100.00;102848.53;5378436;26;20087;-81
2024/04/10 08:47:57;;;;;;;10.45;1.73;;;;;;;12.93;100.00;102851.72;5380441;26;20003;-80
2024/04/10 08:50:24;;;;;;;10.35;2.45;;;;;;;13.04;100.00;102860.72;5380059;26;20467;-81
2024/04/10 08:52:53;;;;;;;5.55;1.50;;;;;;;13.63;100.00;102854.00;5380425;26;20417;-85
2024/04/10 08:55:18;;;;;;;7.07;1.40;;;;;;;14.26;100.00;102860.09;5377670;26;19996;-81
2024/04/10 08:57:44;;;;;;;9.80;1.40;;;;;;;14.99;100.00;102860.03;5380129;26;20000;-81
2024/04/10 09:00:10;;;;;;;6.35;1.33;;;;;;;15.57;100.00;102869.78;5379711;26;20023;-84
2024/04/10 09:02:36;;;;;;;10.63;1.67;;;;;;;15.06;100.00;102874.66;5378194;26;20007;-82
2024/04/10 09:05:02;;;;;;;8.25;1.38;;;;;;;15.19;100.00;102874.53;5379529;26;20000;-81
2024/04/10 09:07:27;;;;;;;7.75;1.58;;;;;;;16.36;100.00;102865.16;5376934;26;20024;-80
2024/04/10 09:09:52;;;;;;;7.82;1.95;;;;;;;17.25;100.00;102877.41;5379713;26;20122;-80
2024/04/10 09:12:24;;;;;;;8.52;1.70;;;;;;;17.72;100.00;102875.06;5377707;26;20007;-79
2024/04/10 09:14:50;;;;;;;10.52;2.05;;;;;;;17.91;100.00;102874.25;5380048;26;20008;-79
2024/04/10 09:17:18;;;;;;;8.07;1.73;;;;;;;19.12;100.00;102876.69;5380041;26;20015;-79
2024/04/10 09:19:43;;;;;;;6.00;1.25;;;;;;;19.58;100.00;102879.50;5380541;26;20070;-79
2024/04/10 09:22:11;;;;;;;8.20;1.55;;;;;;;20.16;100.00;102886.47;5377400;26;20403;-80
2024/04/10 09:24:36;;;;;;;6.18;1.40;;;;;;;19.57;100.00;102881.34;5379630;26;19996;-75
2024/04/10 09:27:09;;;;;;;7.45;2.00;;;;;;;19.20;100.00;102887.63;5348146;26;20068;-81
2024/04/10 09:29:35;;;;;;;9.43;1.63;;;;;;;19.47;100.00;102883.25;5379824;26;20003;-81
2024/04/10 09:32:05;;;;;;;9.68;2.17;;;;;;;19.47;100.00;102888.66;5379087;26;20000;-81
2024/04/10 09:34:31;;;;;;;7.55;1.58;;;;;;;19.12;100.00;102879.38;5349985;26;20025;-82
2024/04/10 09:36:56;;;;;;;6.47;1.70;;;;;;;19.65;100.00;102888.72;5379411;26;20030;-80
2024/04/10 09:39:22;;;;;;;6.38;1.55;;;;;;;19.91;95.44;102902.38;5379314;26;20119;-80
2024/04/10 09:41:55;;;;;;;6.85;1.88;;;;;;;19.34;97.91;102897.91;5377673;26;20092;-81
2024/04/10 09:44:24;;;;;;;6.72;1.50;;;;;;;18.94;100.00;102904.41;5382606;26;20012;-81
2024/04/10 09:47:00;;;;;;;8.05;2.17;;;;;;;19.64;90.58;102906.75;5383751;26;20024;-85
2024/04/10 09:49:35;;;;;;;4.80;1.27;;;;;;;19.70;91.86;102913.41;5379953;26;20385;-79
2024/04/10 09:52:01;;;;;;;4.57;1.40;;;;;;;18.94;89.26;102914.34;5379699;26;20073;-78
2024/04/10 09:54:27;;;;;;;5.80;1.75;;;;;;;19.64;87.83;102912.16;5379856;26;20004;-79
2024/04/10 09:56:54;;;;;;;4.50;1.42;;;;;;;19.52;87.68;102914.19;5380755;26;19996;-78
2024/04/10 09:59:20;;;;;;;5.07;1.50;;;;;;;19.82;89.21;102912.25;5379360;26;20011;-79
2024/04/10 10:01:46;;;;;;;6.85;1.55;;;;;;;19.97;88.37;102907.19;5378711;26;20076;-79
2024/04/10 10:04:11;;;;;;;4.95;1.70;;;;;;;19.74;85.32;102918.38;5377048;26;20011;-77
2024/04/10 10:06:37;;;;;;;6.95;1.30;;;;;;;19.27;87.82;102922.94;5378879;26;19996;-77
2024/04/10 10:09:02;;;;;;;5.78;1.50;;;;;;;19.83;91.03;102915.81;5379195;26;20010;-77
2024/04/10 10:11:28;;;;;;;7.50;1.40;;;;;;;20.69;84.98;102926.22;5377223;26;20016;-79
2024/04/10 10:14:04;;;;;;;6.30;1.30;;;;;;;21.14;75.37;102913.53;5379491;26;20004;-78
2024/04/10 10:16:33;;;;;;;6.38;1.17;;;;;;;20.76;66.39;102913.72;5377002;26;19996;-79
2024/04/10 10:19:01;;;;;;;9.13;1.40;;;;;;;20.81;68.99;102924.13;5379434;26;19996;-78
2024/04/10 10:21:31;;;;;;;4.22;1.13;;;;;;;20.29;66.37;102922.06;5378567;26;20069;-78
2024/04/10 10:24:01;;;;;;;5.85;1.58;;;;;;;20.35;69.75;102910.63;5378431;26;20004;-78
2024/04/10 10:26:27;;;;;;;5.43;1.27;;;;;;;20.63;68.05;102929.50;5378416;26;20397;-78
2024/04/10 10:29:08;;;;;;;4.85;1.10;;;;;;;20.29;66.85;102929.31;5378598;26;20000;-79
2024/04/10 10:31:34;;;;;;;5.05;1.35;;;;;;;20.52;74.49;102938.69;5378438;26;20000;-79
2024/04/10 10:34:01;;;;;;;6.95;1.60;;;;;;;20.69;78.19;102922.63;5378779;26;19996;-78
2024/04/10 10:36:26;;;;;;;6.53;1.23;;;;;;;21.29;67.80;102928.16;5376933;26;20011;-79
2024/04/10 10:39:18;;;;;;;9.90;1.38;;;;;;;21.31;69.28;102939.66;5378676;26;20430;-83
2024/04/10 10:41:44;;;;;;;3.65;1.00;;;;;;;21.21;69.04;102947.03;5378301;26;20108;-78
2024/04/10 10:44:09;;;;;;;5.50;1.40;;;;;;;20.61;64.48;102934.19;5377827;26;19997;-79
2024/04/10 10:46:35;;;;;;;5.22;0.98;;;;;;;20.76;66.76;102935.38;5376104;26;20408;-80
2024/04/10 10:49:03;;;;;;;5.05;1.27;;;;;;;20.94;67.25;102948.03;5378124;26;20016;-83
2024/04/10 10:51:30;;;;;;;4.00;1.10;;;;;;;21.02;63.18;102947.25;5377676;26;20000;-80
2024/04/10 10:53:56;;;;;;;3.85;1.30;;;;;;;20.97;62.89;102953.13;5377959;26;20004;-81
2024/04/10 10:56:26;;;;;;;7.07;1.30;;;;;;;20.74;62.91;102941.97;5377704;26;20093;-79
2024/04/10 10:58:52;;;;;;;4.10;1.15;;;;;;;21.29;68.27;102936.28;5377857;26;20064;-80
2024/04/10 11:01:18;;;;;;;4.68;1.35;;;;;;;21.60;65.72;102946.66;5377578;26;20011;-78
2024/04/10 11:03:44;;;;;;;4.13;1.10;;;;;;;21.65;57.86;102949.72;5377555;26;20385;-78
2024/04/10 11:06:10;;;;;;;4.88;1.40;;;;;;;21.27;62.06;102932.91;5377678;26;20000;-75
2024/04/10 11:08:36;;;;;;;4.75;1.40;;;;;;;21.27;64.98;102938.31;5377313;26;20003;-73
2024/04/10 11:11:03;;;;;;;4.18;1.60;;;;;;;21.93;60.69;102930.53;5377344;26;20110;-73
2024/04/10 11:13:29;;;;;;;7.18;1.70;;;;;;;22.38;62.62;102933.91;5377056;26;19996;-73
2024/04/10 11:15:57;;;;;;;5.82;1.23;;;;;;;22.09;61.34;102935.13;5376966;26;20032;-74
2024/04/10 11:18:24;;;;;;;6.70;1.58;;;;;;;22.00;57.76;102922.59;5377499;26;20007;-74
2024/04/10 11:20:51;;;;;;;6.10;1.92;;;;;;;21.91;70.59;102923.56;5377083;26;20000;-74